Time;durP1;ratioP1;P1;durP2;ratioP2;P2;SDS_P1;SDS_P2;PMS_P1;PMS_P2;Temp;Humidity;BMP_temperature;BMP_pressure;BME280_temperature;BME280_humidity;BME280_pressure;Samples;Min_cycle;Max_cycle;Signal;HPM_P1;HPM_P2
2024/03/01 00:02:02;;;;;;;6.13;3.20;;;10.70;77.80;;;;;;9179349;19;20656;-69
2024/03/01 00:05:08;;;;;;;9.20;3.53;;;10.70;77.70;;;;;;9182547;19;20019;-68
2024/03/01 00:08:16;;;;;;;8.20;3.70;;;10.60;77.60;;;;;;9179264;19;20015;-69
2024/03/01 00:11:21;;;;;;;6.13;3.58;;;10.60;77.60;;;;;;9180724;19;20010;-68
2024/03/01 00:14:29;;;;;;;8.85;2.95;;;10.60;77.60;;;;;;9177662;19;20018;-67
2024/03/01 00:17:37;;;;;;;6.35;3.15;;;10.60;77.60;;;;;;9182229;19;20033;-68
2024/03/01 00:20:44;;;;;;;7.80;3.15;;;10.60;77.50;;;;;;9179484;19;20025;-67
2024/03/01 00:23:50;;;;;;;5.47;2.90;;;10.60;77.50;;;;;;9180543;19;20018;-68
2024/03/01 00:26:58;;;;;;;6.70;3.85;;;10.60;77.50;;;;;;9182220;19;20494;-68
2024/03/01 00:30:03;;;;;;;6.47;3.35;;;10.50;77.40;;;;;;9180566;19;20403;-67
2024/03/01 00:33:13;;;;;;;5.80;3.03;;;10.50;77.30;;;;;;9181265;19;20010;-67
2024/03/01 00:36:19;;;;;;;6.50;3.58;;;10.50;77.30;;;;;;9180834;19;20037;-68
2024/03/01 00:39:26;;;;;;;8.20;3.85;;;10.50;77.30;;;;;;9180314;19;20813;-67
2024/03/01 00:42:32;;;;;;;5.20;3.50;;;10.60;77.30;;;;;;9177772;19;20037;-68
2024/03/01 00:45:39;;;;;;;11.23;3.75;;;10.50;77.20;;;;;;9179839;19;20682;-68
2024/03/01 00:48:48;;;;;;;6.00;3.75;;;10.50;77.20;;;;;;9180672;19;20381;-68
2024/03/01 00:51:55;;;;;;;9.27;4.18;;;10.50;77.00;;;;;;9180193;19;20018;-68
2024/03/01 00:55:01;;;;;;;8.38;3.67;;;10.50;77.10;;;;;;9180531;19;20015;-68
2024/03/01 00:58:08;;;;;;;10.23;3.75;;;10.50;77.10;;;;;;9179566;19;20070;-67
2024/03/01 01:01:15;;;;;;;9.05;4.20;;;10.40;77.00;;;;;;9176868;19;20014;-68
2024/03/01 01:04:25;;;;;;;9.25;4.85;;;10.40;76.90;;;;;;9175501;19;20014;-68
2024/03/01 01:07:31;;;;;;;11.15;4.80;;;10.40;76.90;;;;;;9180554;19;20030;-67
2024/03/01 01:10:38;;;;;;;8.30;3.92;;;10.40;76.90;;;;;;9178819;19;20022;-68
2024/03/01 01:13:44;;;;;;;9.52;4.53;;;10.40;76.80;;;;;;9175692;19;20021;-67
2024/03/01 01:16:51;;;;;;;9.52;4.35;;;10.40;76.80;;;;;;9177474;19;20014;-69
2024/03/01 01:20:01;;;;;;;9.98;4.72;;;10.40;76.80;;;;;;9177072;19;20022;-68
2024/03/01 01:23:08;;;;;;;11.00;4.70;;;10.40;76.80;;;;;;9179594;19;20022;-69
2024/03/01 01:26:14;;;;;;;11.13;4.97;;;10.40;76.90;;;;;;9178762;19;20090;-67
2024/03/01 01:29:21;;;;;;;9.75;4.22;;;10.40;76.80;;;;;;9178962;19;20026;-67
2024/03/01 01:32:27;;;;;;;12.13;4.85;;;10.40;76.70;;;;;;9178988;19;20023;-67
2024/03/01 01:35:37;;;;;;;11.30;4.65;;;10.40;76.80;;;;;;9177865;19;20014;-67
2024/03/01 01:38:42;;;;;;;9.02;5.20;;;10.40;76.70;;;;;;9176151;19;20006;-67
2024/03/01 01:41:50;;;;;;;10.48;5.90;;;10.30;76.70;;;;;;9176234;19;20014;-69
2024/03/01 01:45:02;;;;;;;12.95;5.70;;;10.30;76.70;;;;;;9177955;19;20115;-69
2024/03/01 01:48:10;;;;;;;9.20;5.30;;;10.30;76.70;;;;;;9178383;19;20022;-67
2024/03/01 01:51:20;;;;;;;12.07;6.25;;;10.30;76.70;;;;;;9176139;19;20014;-67
2024/03/01 01:54:28;;;;;;;9.85;5.55;;;10.30;76.70;;;;;;9178610;19;20015;-68
2024/03/01 01:57:34;;;;;;;11.93;6.38;;;10.30;76.70;;;;;;9178123;19;20015;-67
2024/03/01 02:00:41;;;;;;;11.52;6.53;;;10.30;76.80;;;;;;9174762;19;20006;-68
2024/03/01 02:03:47;;;;;;;13.98;6.68;;;10.30;76.80;;;;;;9177623;19;20014;-67
2024/03/01 02:06:57;;;;;;;10.23;5.95;;;10.30;76.80;;;;;;9177196;19;20022;-68
2024/03/01 02:10:09;;;;;;;12.05;6.43;;;10.30;76.70;;;;;;9177110;19;20444;-67
2024/03/01 02:13:21;;;;;;;12.52;6.65;;;10.30;76.80;;;;;;9178225;19;20014;-68
2024/03/01 02:16:28;;;;;;;14.85;6.78;;;10.30;76.90;;;;;;9172585;19;20378;-68
2024/03/01 02:19:36;;;;;;;12.40;6.88;;;10.30;76.90;;;;;;9175859;19;20078;-68
2024/03/01 02:22:50;;;;;;;17.73;7.35;;;10.30;77.00;;;;;;9173932;19;20031;-68
2024/03/01 02:26:01;;;;;;;15.00;7.20;;;10.30;76.80;;;;;;9176050;19;20014;-67
2024/03/01 02:29:06;;;;;;;14.68;6.35;;;10.30;76.90;;;;;;9176339;19;20042;-68
2024/03/01 02:32:15;;;;;;;14.07;6.72;;;10.30;77.00;;;;;;9175971;19;20086;-68
2024/03/01 02:35:20;;;;;;;12.35;6.80;;;10.30;76.90;;;;;;9175719;19;20022;-67
2024/03/01 02:38:28;;;;;;;10.85;6.35;;;10.30;76.90;;;;;;9174331;19;20018;-67
2024/03/01 02:41:36;;;;;;;14.18;7.20;;;10.30;77.00;;;;;;9173899;19;20014;-67
2024/03/01 02:44:43;;;;;;;13.77;6.90;;;10.30;76.90;;;;;;9175856;19;20018;-67
2024/03/01 02:47:49;;;;;;;12.85;7.32;;;10.30;77.00;;;;;;9174926;19;20015;-68
2024/03/01 02:50:57;;;;;;;17.35;6.95;;;10.30;76.90;;;;;;9175297;19;20492;-67
2024/03/01 02:54:02;;;;;;;15.60;7.55;;;10.30;76.90;;;;;;9176047;19;20861;-68
2024/03/01 02:57:12;;;;;;;15.98;7.72;;;10.30;76.80;;;;;;9173099;19;20760;-67
2024/03/01 03:00:19;;;;;;;14.43;8.13;;;10.30;76.80;;;;;;9173426;19;20665;-67
2024/03/01 03:03:26;;;;;;;12.75;7.25;;;10.30;76.90;;;;;;9173363;19;20034;-68
2024/03/01 03:06:32;;;;;;;16.27;7.43;;;10.30;76.80;;;;;;9174023;19;20032;-68
2024/03/01 03:09:43;;;;;;;14.15;7.43;;;10.30;76.80;;;;;;9174736;19;20017;-67
2024/03/01 03:12:51;;;;;;;12.18;6.90;;;10.30;76.70;;;;;;9175641;19;20018;-67
2024/03/01 03:15:59;;;;;;;21.17;7.60;;;10.30;76.80;;;;;;9170269;19;20014;-68
2024/03/01 03:19:05;;;;;;;14.80;8.05;;;10.30;76.80;;;;;;9175094;19;20014;-68
2024/03/01 03:22:12;;;;;;;16.90;7.88;;;10.30;76.80;;;;;;9173573;19;20026;-68
2024/03/01 03:25:20;;;;;;;14.93;7.07;;;10.40;76.90;;;;;;9174435;19;20074;-68
2024/03/01 03:28:28;;;;;;;14.63;7.82;;;10.40;76.80;;;;;;9172710;19;20018;-68
2024/03/01 03:31:36;;;;;;;14.80;7.72;;;10.40;76.70;;;;;;9179257;19;20018;-68
2024/03/01 03:34:41;;;;;;;17.98;7.63;;;10.40;76.80;;;;;;9183280;19;20399;-67
2024/03/01 03:37:49;;;;;;;13.73;7.35;;;10.40;76.80;;;;;;9181689;19;20029;-67
2024/03/01 03:40:54;;;;;;;13.02;7.35;;;10.40;77.40;;;;;;9183292;19;20781;-68
2024/03/01 03:44:04;;;;;;;13.77;7.30;;;10.40;76.80;;;;;;9180043;19;20025;-69
2024/03/01 03:47:10;;;;;;;13.38;7.47;;;10.40;76.70;;;;;;9182572;19;20396;-67
2024/03/01 03:50:17;;;;;;;14.98;7.88;;;10.40;76.80;;;;;;9183375;19;20380;-69
2024/03/01 03:53:23;;;;;;;14.75;7.30;;;10.40;76.90;;;;;;9179609;19;20035;-69
2024/03/01 03:56:30;;;;;;;16.30;7.63;;;10.40;76.80;;;;;;9182717;19;20111;-67
2024/03/01 03:59:39;;;;;;;16.15;8.48;;;10.40;76.80;;;;;;9183462;19;20026;-67
2024/03/01 04:02:47;;;;;;;14.15;7.47;;;10.40;76.80;;;;;;9181118;19;20023;-67
2024/03/01 04:05:52;;;;;;;12.65;6.90;;;10.40;76.80;;;;;;9181613;19;20388;-68
2024/03/01 04:09:00;;;;;;;18.08;8.10;;;10.40;76.80;;;;;;9183098;19;20010;-69
2024/03/01 04:12:07;;;;;;;13.18;7.63;;;10.40;76.80;;;;;;9180069;19;20016;-69
2024/03/01 04:15:17;;;;;;;21.98;8.55;;;10.40;76.80;;;;;;9178057;19;20026;-69
2024/03/01 04:18:27;;;;;;;14.55;8.10;;;10.30;76.70;;;;;;9182758;19;20014;-68
2024/03/01 04:21:35;;;;;;;16.10;8.27;;;10.30;76.70;;;;;;9181639;19;20625;-68
2024/03/01 04:24:41;;;;;;;18.73;8.50;;;10.30;76.80;;;;;;9179022;19;20011;-67
2024/03/01 04:27:49;;;;;;;16.90;8.40;;;10.30;76.80;;;;;;9182510;19;20014;-69
2024/03/01 04:30:57;;;;;;;20.48;8.70;;;10.20;76.70;;;;;;9181570;19;20015;-68
2024/03/01 04:34:06;;;;;;;15.68;7.95;;;10.20;76.80;;;;;;9180034;19;20025;-67
2024/03/01 04:37:13;;;;;;;16.88;8.10;;;10.20;76.80;;;;;;9179690;19;20023;-67
2024/03/01 04:40:21;;;;;;;16.15;8.30;;;10.20;76.80;;;;;;9180538;19;20037;-67
2024/03/01 04:43:26;;;;;;;15.45;7.72;;;10.10;76.90;;;;;;9178244;19;20026;-67
2024/03/01 04:46:42;;;;;;;17.33;8.05;;;10.10;76.90;;;;;;9181000;19;20019;-68
2024/03/01 04:49:47;;;;;;;15.10;8.20;;;10.10;77.00;;;;;;9177835;19;20018;-67
2024/03/01 04:52:55;;;;;;;18.60;8.43;;;10.10;77.00;;;;;;9178268;19;20014;-67
2024/03/01 04:56:00;;;;;;;17.73;8.43;;;10.10;77.00;;;;;;9178953;19;20038;-69
2024/03/01 04:59:08;;;;;;;17.50;8.23;;;10.10;77.10;;;;;;9179147;19;20029;-67
2024/03/01 05:02:17;;;;;;;14.55;7.82;;;10.00;77.10;;;;;;9175125;19;20018;-68
2024/03/01 05:05:25;;;;;;;18.63;8.48;;;10.10;77.20;;;;;;9174187;19;20029;-68
2024/03/01 05:08:32;;;;;;;16.23;8.32;;;10.00;77.20;;;;;;9174593;19;20018;-67
2024/03/01 05:11:40;;;;;;;19.83;8.40;;;10.10;77.30;;;;;;9175127;19;20022;-67
2024/03/01 05:14:45;;;;;;;19.75;7.97;;;10.10;77.30;;;;;;9170946;19;20019;-67
2024/03/01 05:17:57;;;;;;;15.90;8.43;;;10.10;77.40;;;;;;9176693;19;20022;-68
2024/03/01 05:21:04;;;;;;;13.30;7.22;;;10.10;77.40;;;;;;9178779;19;20407;-68
2024/03/01 05:24:11;;;;;;;13.88;7.47;;;10.10;77.40;;;;;;9177475;19;20018;-67
2024/03/01 05:27:17;;;;;;;11.80;7.30;;;10.10;77.40;;;;;;9178855;19;20026;-69
2024/03/01 05:30:26;;;;;;;18.98;7.72;;;10.10;77.50;;;;;;9179070;19;20480;-68
2024/03/01 05:33:53;;;;;;;13.63;6.93;;;10.10;77.50;;;;;;9178700;19;20026;-69
2024/03/01 05:37:02;;;;;;;13.43;7.15;;;10.10;77.60;;;;;;9178006;19;20037;-68
2024/03/01 05:40:10;;;;;;;18.45;7.53;;;10.10;77.60;;;;;;9178792;19;20011;-67
2024/03/01 05:43:18;;;;;;;13.57;7.35;;;10.10;77.70;;;;;;9177137;19;20638;-68
2024/03/01 05:46:25;;;;;;;13.77;6.82;;;10.20;77.80;;;;;;9178357;19;20010;-69
2024/03/01 05:49:35;;;;;;;15.10;7.55;;;10.20;78.40;;;;;;9178042;19;20031;-67
2024/03/01 05:52:42;;;;;;;13.57;7.47;;;10.20;77.80;;;;;;9176346;19;20018;-68
2024/03/01 05:55:50;;;;;;;13.68;7.03;;;10.20;77.80;;;;;;9177741;19;20010;-69
2024/03/01 05:58:55;;;;;;;14.27;7.53;;;10.20;77.90;;;;;;9176426;19;20582;-68
2024/03/01 06:02:04;;;;;;;16.83;8.32;;;10.20;77.90;;;;;;9177413;19;20383;-68
2024/03/01 06:05:13;;;;;;;16.63;7.38;;;10.20;77.80;;;;;;9173563;19;20026;-69
2024/03/01 06:08:21;;;;;;;16.17;7.97;;;10.20;78.50;;;;;;9175750;19;20014;-69
2024/03/01 06:11:26;;;;;;;14.48;8.00;;;10.20;77.90;;;;;;9173727;19;20022;-68
2024/03/01 06:14:34;;;;;;;15.73;7.90;;;10.20;77.90;;;;;;9168765;19;20022;-68
2024/03/01 06:17:39;;;;;;;15.18;7.55;;;10.20;78.00;;;;;;9175210;19;20014;-68
2024/03/01 06:20:49;;;;;;;13.25;7.93;;;10.20;78.00;;;;;;9174478;19;20471;-69
2024/03/01 06:23:55;;;;;;;16.98;8.32;;;10.20;78.10;;;;;;9174417;19;20019;-67
2024/03/01 06:27:02;;;;;;;14.07;7.72;;;10.20;78.10;;;;;;9177085;19;20737;-68
2024/03/01 06:30:09;;;;;;;15.52;8.93;;;10.20;78.20;;;;;;9176915;19;20022;-67
2024/03/01 06:33:17;;;;;;;15.02;7.50;;;10.30;78.30;;;;;;9175408;19;20449;-68
2024/03/01 06:36:25;;;;;;;14.48;7.90;;;10.20;78.30;;;;;;9175888;19;20094;-68
2024/03/01 06:39:33;;;;;;;13.18;7.32;;;10.20;78.30;;;;;;9176305;19;20015;-68
2024/03/01 06:42:38;;;;;;;15.80;8.45;;;10.20;78.30;;;;;;9175667;19;20015;-67
2024/03/01 06:45:46;;;;;;;18.02;8.00;;;10.20;78.40;;;;;;9173610;19;20468;-68
2024/03/01 06:48:51;;;;;;;25.08;9.25;;;10.20;78.50;;;;;;9176371;19;20010;-68
2024/03/01 06:52:04;;;;;;;14.10;7.00;;;10.20;78.50;;;;;;9173680;19;20025;-68
2024/03/01 06:55:11;;;;;;;14.23;7.30;;;10.20;78.50;;;;;;9174249;19;20019;-68
2024/03/01 06:58:19;;;;;;;17.25;7.78;;;10.20;78.60;;;;;;9175173;19;20025;-69
2024/03/01 07:01:25;;;;;;;15.45;7.22;;;10.20;78.60;;;;;;9175472;19;20017;-67
2024/03/01 07:04:33;;;;;;;12.68;6.88;;;10.10;78.60;;;;;;9173290;19;20022;-68
2024/03/01 07:07:41;;;;;;;14.73;6.45;;;10.10;79.20;;;;;;9175063;19;20025;-68
2024/03/01 07:10:50;;;;;;;15.95;6.95;;;10.10;78.70;;;;;;9174870;19;20384;-66
2024/03/01 07:13:56;;;;;;;12.07;6.90;;;10.10;78.70;;;;;;9170593;19;20021;-68
2024/03/01 07:17:03;;;;;;;10.75;6.45;;;10.10;78.70;;;;;;9174867;19;20337;-69
2024/03/01 07:20:10;;;;;;;10.40;5.82;;;10.10;78.70;;;;;;9174666;19;20014;-67
2024/03/01 07:23:20;;;;;;;10.05;5.85;;;10.10;78.80;;;;;;9174595;19;20476;-68
2024/03/01 07:26:26;;;;;;;9.95;5.43;;;10.10;78.80;;;;;;9171156;19;20014;-69
2024/03/01 07:29:33;;;;;;;10.25;5.82;;;10.00;78.90;;;;;;9174970;19;20023;-69
2024/03/01 07:32:41;;;;;;;8.25;3.53;;;10.00;79.00;;;;;;9174406;19;20014;-67
2024/03/01 07:35:49;;;;;;;4.45;2.80;;;10.00;79.00;;;;;;9174027;19;20026;-67
2024/03/01 07:38:57;;;;;;;4.95;2.50;;;10.00;79.00;;;;;;9171662;19;20013;-67
2024/03/01 07:42:04;;;;;;;3.00;1.73;;;9.90;78.90;;;;;;9173222;19;20034;-67
2024/03/01 07:45:10;;;;;;;2.47;2.00;;;9.90;79.00;;;;;;9172189;19;20011;-68
2024/03/01 07:48:18;;;;;;;5.72;3.10;;;9.90;79.00;;;;;;9173981;19;20026;-68
2024/03/01 07:51:24;;;;;;;5.85;2.53;;;9.90;79.00;;;;;;9173816;19;20037;-67
2024/03/01 07:54:37;;;;;;;5.70;2.50;;;9.90;79.60;;;;;;9173789;19;20025;-68
2024/03/01 07:57:42;;;;;;;2.97;2.35;;;9.80;78.90;;;;;;9173681;19;20026;-68
2024/03/01 08:00:50;;;;;;;6.13;2.25;;;9.80;78.90;;;;;;9173331;19;20014;-66
2024/03/01 08:03:55;;;;;;;2.92;2.10;;;9.80;78.90;;;;;;9173112;19;20017;-69
2024/03/01 08:07:06;;;;;;;4.28;1.80;;;9.70;78.80;;;;;;9172797;19;20026;-67
2024/03/01 08:10:17;;;;;;;1.88;1.63;;;9.70;78.90;;;;;;9173068;19;20580;-67
2024/03/01 08:13:25;;;;;;;2.80;2.05;;;9.70;78.90;;;;;;9173247;19;20064;-67
2024/03/01 08:16:30;;;;;;;4.78;2.33;;;9.60;78.90;;;;;;9170932;19;20017;-69
2024/03/01 08:19:40;;;;;;;1.65;1.42;;;9.60;78.90;;;;;;9182176;19;20019;-67
2024/03/01 08:22:48;;;;;;;2.50;1.30;;;9.60;78.90;;;;;;9181997;19;20499;-67
2024/03/01 08:26:00;;;;;;;3.40;1.50;;;9.60;78.90;;;;;;9179497;19;20022;-68
2024/03/01 08:29:07;;;;;;;2.70;1.25;;;9.50;79.40;;;;;;9182241;19;20014;-67
2024/03/01 08:32:31;;;;;;;2.47;1.20;;;9.50;78.90;;;;;;9181378;19;20022;-68
2024/03/01 08:35:38;;;;;;;3.25;1.80;;;9.50;78.90;;;;;;9181731;19;21516;-67
2024/03/01 08:39:02;;;;;;;3.63;1.92;;;9.50;79.00;;;;;;9177713;19;20011;-68
2024/03/01 08:42:11;;;;;;;4.15;1.75;;;9.50;78.90;;;;;;9181281;19;20010;-67
2024/03/01 08:45:36;;;;;;;2.65;1.38;;;9.50;79.00;;;;;;9179418;19;20491;-67
2024/03/01 08:48:42;;;;;;;4.07;1.60;;;9.50;79.00;;;;;;9181026;19;20345;-67
2024/03/01 08:51:49;;;;;;;2.92;1.50;;;9.50;79.00;;;;;;9176288;19;20015;-67
2024/03/01 08:54:58;;;;;;;3.20;1.58;;;9.50;79.00;;;;;;9176544;19;20022;-69
2024/03/01 08:58:17;;;;;;;2.83;2.08;;;9.50;78.90;;;;;;9176494;19;20018;-67
2024/03/01 09:01:47;;;;;;;4.80;2.60;;;9.50;78.90;;;;;;9176311;19;20558;-69
2024/03/01 09:04:55;;;;;;;7.38;2.88;;;9.50;78.80;;;;;;9178753;19;20011;-67
2024/03/01 09:08:03;;;;;;;3.50;2.55;;;9.50;78.90;;;;;;9178432;19;20533;-67
2024/03/01 09:11:14;;;;;;;7.20;3.15;;;9.50;79.00;;;;;;9180253;19;20022;-67
2024/03/01 09:14:33;;;;;;;4.78;2.85;;;9.50;79.00;;;;;;9175586;19;20070;-67
2024/03/01 09:17:40;;;;;;;4.20;2.88;;;9.60;79.00;;;;;;9179864;19;20022;-67
2024/03/01 09:20:47;;;;;;;6.38;3.10;;;9.60;79.10;;;;;;9179670;19;20021;-68
2024/03/01 09:23:57;;;;;;;5.32;3.50;;;9.60;79.30;;;;;;9178780;19;20029;-68
2024/03/01 09:27:09;;;;;;;5.15;2.95;;;9.70;79.40;;;;;;9176830;19;20472;-67
2024/03/01 09:30:25;;;;;;;6.47;2.97;;;9.80;79.50;;;;;;9175268;19;20018;-67
2024/03/01 09:33:31;;;;;;;9.20;3.22;;;9.80;79.40;;;;;;9177857;19;20010;-68
2024/03/01 09:36:39;;;;;;;6.70;2.40;;;9.90;79.40;;;;;;9176219;19;20101;-69
2024/03/01 09:39:45;;;;;;;5.20;2.75;;;10.00;79.30;;;;;;9177544;19;20011;-70
2024/03/01 09:42:56;;;;;;;4.82;2.83;;;10.00;79.20;;;;;;9175345;19;20372;-68
2024/03/01 09:46:09;;;;;;;6.20;2.80;;;10.10;79.20;;;;;;9175269;19;20015;-67
2024/03/01 09:49:27;;;;;;;4.32;3.05;;;10.10;79.10;;;;;;9177707;19;20021;-68
2024/03/01 09:52:45;;;;;;;9.43;3.10;;;10.10;79.00;;;;;;9177573;19;20483;-67
2024/03/01 09:56:03;;;;;;;5.13;3.33;;;10.10;79.60;;;;;;9171868;19;20011;-67
2024/03/01 09:59:15;;;;;;;6.63;3.33;;;10.10;79.00;;;;;;9170308;19;20519;-67
2024/03/01 10:02:36;;;;;;;8.80;3.17;;;10.10;79.00;;;;;;9172403;19;20021;-66
2024/03/01 10:06:03;;;;;;;3.90;2.60;;;10.20;78.90;;;;;;9177693;19;20594;-69
2024/03/01 10:09:23;;;;;;;4.03;2.50;;;10.20;78.90;;;;;;9173967;19;20025;-67
2024/03/01 10:12:41;;;;;;;8.32;2.80;;;10.10;78.90;;;;;;9174726;19;20070;-67
2024/03/01 10:16:00;;;;;;;3.85;2.60;;;10.20;79.10;;;;;;9173062;19;20014;-67
2024/03/01 10:19:16;;;;;;;4.00;2.33;;;10.30;79.10;;;;;;9174275;19;20018;-68
2024/03/01 10:22:36;;;;;;;3.95;2.40;;;10.30;79.10;;;;;;9176139;19;20015;-70
2024/03/01 10:25:52;;;;;;;6.07;2.40;;;10.40;79.60;;;;;;9173845;19;20368;-68
2024/03/01 10:29:13;;;;;;;4.40;2.53;;;10.40;78.90;;;;;;9174463;19;20015;-71
2024/03/01 10:32:29;;;;;;;6.55;2.83;;;10.50;78.90;;;;;;9169839;19;21188;-68
2024/03/01 10:35:47;;;;;;;5.75;3.28;;;10.50;78.90;;;;;;9168822;19;20497;-68
2024/03/01 10:39:02;;;;;;;6.28;3.70;;;10.60;78.90;;;;;;9157041;19;20024;-67
2024/03/01 10:42:16;;;;;;;5.20;3.33;;;10.70;78.90;;;;;;9168381;19;20021;-69
2024/03/01 10:45:28;;;;;;;6.80;3.35;;;10.80;78.90;;;;;;9174844;19;20034;-66
2024/03/01 10:48:43;;;;;;;13.55;4.07;;;10.90;78.80;;;;;;9172070;19;20014;-67
2024/03/01 10:51:56;;;;;;;5.88;3.88;;;11.00;78.70;;;;;;9174947;19;20010;-67
2024/03/01 10:55:06;;;;;;;10.55;4.90;;;11.10;78.60;;;;;;9174680;19;20022;-66
2024/03/01 10:58:20;;;;;;;7.40;4.32;;;11.10;78.50;;;;;;9176225;19;20022;-68
2024/03/01 11:01:33;;;;;;;5.40;3.85;;;11.20;78.40;;;;;;9174726;19;20025;-69
2024/03/01 11:04:46;;;;;;;5.65;3.83;;;11.30;78.30;;;;;;9174415;19;20113;-67
2024/03/01 11:08:03;;;;;;;;;;;11.40;78.30;;;;;;9174452;19;20680;-69
2024/03/01 11:11:14;;;;;;;7.75;3.97;;;11.50;78.40;;;;;;9174825;19;20333;-68
2024/03/01 11:14:23;;;;;;;10.52;4.18;;;11.60;78.40;;;;;;9167564;19;20021;-67
2024/03/01 11:17:31;;;;;;;6.30;4.13;;;11.60;78.20;;;;;;9169267;19;20047;-67
2024/03/01 11:20:44;;;;;;;8.00;4.57;;;11.70;78.10;;;;;;9170500;19;20018;-69
2024/03/01 11:23:57;;;;;;;10.82;4.22;;;11.80;77.90;;;;;;9170509;19;20481;-68
2024/03/01 11:27:11;;;;;;;6.45;4.10;;;11.90;77.80;;;;;;9170012;19;20772;-67
2024/03/01 11:30:22;;;;;;;8.90;3.97;;;12.00;77.80;;;;;;9171404;19;20022;-69
2024/03/01 11:33:34;;;;;;;7.32;4.32;;;12.10;77.70;;;;;;9174992;19;20038;-67
2024/03/01 11:36:57;;;;;;;5.68;3.50;;;12.10;77.60;;;;;;9172548;19;20483;-67
2024/03/01 11:40:14;;;;;;;6.63;3.72;;;12.20;77.20;;;;;;9174268;19;20078;-67
2024/03/01 11:43:36;;;;;;;10.23;3.90;;;12.20;77.10;;;;;;9172806;19;20018;-67
2024/03/01 11:47:10;;;;;;;6.93;3.70;;;12.20;76.90;;;;;;9169799;19;20018;-67
2024/03/01 11:50:36;;;;;;;10.75;3.95;;;12.30;77.00;;;;;;9172526;19;20050;-67
2024/03/01 11:54:09;;;;;;;7.20;3.80;;;12.30;76.70;;;;;;9180997;19;20610;-67
2024/03/01 11:57:30;;;;;;;5.93;3.38;;;12.30;76.60;;;;;;9180691;19;20018;-68
2024/03/01 12:00:48;;;;;;;7.70;3.90;;;12.30;76.70;;;;;;9181316;19;20291;-67
2024/03/01 12:04:28;;;;;;;5.22;2.97;;;12.40;76.90;;;;;;9181271;19;20014;-66
2024/03/01 12:07:50;;;;;;;7.20;2.95;;;12.50;76.60;;;;;;9178909;19;20021;-67
2024/03/01 12:11:13;;;;;;;6.55;2.80;;;12.50;76.60;;;;;;9180395;19;20018;-67
2024/03/01 12:14:30;;;;;;;3.83;2.65;;;12.50;76.30;;;;;;9175743;19;20025;-67
2024/03/01 12:17:45;;;;;;;5.10;2.50;;;12.60;76.20;;;;;;9177782;19;20022;-69
2024/03/01 12:21:03;;;;;;;4.10;2.72;;;12.70;76.30;;;;;;9179856;19;20065;-68
2024/03/01 12:24:18;;;;;;;6.50;2.70;;;12.70;76.20;;;;;;9178274;19;20042;-69
2024/03/01 12:27:38;;;;;;;4.38;2.20;;;12.80;76.10;;;;;;9178627;19;20349;-69
2024/03/01 12:31:01;;;;;;;7.75;3.10;;;12.80;75.50;;;;;;9180198;19;20610;-69
2024/03/01 12:34:30;;;;;;;7.00;3.08;;;12.90;75.60;;;;;;9180432;19;20014;-69
2024/03/01 12:37:51;;;;;;;4.88;2.17;;;12.90;75.60;;;;;;9177761;19;20014;-70
2024/03/01 12:41:10;;;;;;;3.30;1.75;;;13.00;75.50;;;;;;9177889;19;20018;-67
2024/03/01 12:44:28;;;;;;;4.85;2.22;;;13.10;75.30;;;;;;9178982;19;20062;-69
2024/03/01 12:48:07;;;;;;;4.90;2.20;;;13.10;75.30;;;;;;9178746;19;20030;-68
2024/03/01 12:51:21;;;;;;;3.40;1.80;;;13.20;75.30;;;;;;9179152;19;20011;-68
2024/03/01 12:54:40;;;;;;;2.58;1.77;;;13.30;75.40;;;;;;9180579;19;20050;-68
2024/03/01 12:57:57;;;;;;;5.75;2.00;;;13.30;75.00;;;;;;9177983;19;20010;-67
2024/03/01 13:01:17;;;;;;;2.72;1.60;;;13.40;74.80;;;;;;9178325;19;20014;-67
2024/03/01 13:04:36;;;;;;;3.78;1.67;;;13.40;74.60;;;;;;9176168;19;20018;-66
2024/03/01 13:07:44;;;;;;;6.65;1.90;;;13.40;74.20;;;;;;9179415;19;20014;-66
2024/03/01 13:10:50;;;;;;;5.47;1.85;;;13.30;74.30;;;;;;9179490;19;20048;-66
2024/03/01 13:14:05;;;;;;;3.80;2.03;;;13.30;74.20;;;;;;9173376;19;20017;-67
2024/03/01 13:17:24;;;;;;;2.25;1.42;;;13.20;74.10;;;;;;9179026;19;20094;-66
2024/03/01 13:20:54;;;;;;;4.30;1.60;;;13.20;73.90;;;;;;9179635;19;20013;-67
2024/03/01 13:24:10;;;;;;;5.05;1.70;;;13.20;73.70;;;;;;9178248;19;20471;-67
2024/03/01 13:27:28;;;;;;;3.90;1.98;;;13.10;73.90;;;;;;9178450;19;20015;-66
2024/03/01 13:30:38;;;;;;;3.33;1.95;;;13.10;73.80;;;;;;9178429;19;20027;-66
2024/03/01 13:33:48;;;;;;;4.07;2.08;;;13.10;73.70;;;;;;9178885;19;20015;-65
2024/03/01 13:37:10;;;;;;;9.65;1.90;;;13.00;73.70;;;;;;9178444;19;20018;-66
2024/03/01 13:40:22;;;;;;;3.95;1.90;;;12.90;73.60;;;;;;9179237;19;20014;-67
2024/03/01 13:43:30;;;;;;;3.53;2.15;;;12.90;73.60;;;;;;9178603;19;20078;-65
2024/03/01 13:46:41;;;;;;;6.72;1.80;;;12.80;73.60;;;;;;9177536;19;20026;-66
2024/03/01 13:50:05;;;;;;;5.68;1.95;;;12.80;73.60;;;;;;9175431;19;20010;-66
2024/03/01 13:53:17;;;;;;;5.40;2.72;;;12.80;73.70;;;;;;9176049;19;20018;-66
2024/03/01 13:56:24;;;;;;;3.00;1.90;;;12.70;73.30;;;;;;9177031;19;20007;-66
2024/03/01 13:59:32;;;;;;;7.47;2.35;;;12.60;73.30;;;;;;9178084;19;20025;-67
2024/03/01 14:02:40;;;;;;;2.65;1.90;;;12.60;73.40;;;;;;9177718;19;20010;-66
2024/03/01 14:05:48;;;;;;;4.80;2.20;;;12.50;73.50;;;;;;9177350;19;20018;-69
2024/03/01 14:08:56;;;;;;;4.95;2.08;;;12.50;73.50;;;;;;9176348;19;20081;-65
2024/03/01 14:12:06;;;;;;;6.00;2.30;;;12.50;73.40;;;;;;9173340;19;20688;-68
2024/03/01 14:15:13;;;;;;;6.88;2.58;;;12.40;73.40;;;;;;9169892;19;20018;-66
2024/03/01 14:18:21;;;;;;;5.60;2.30;;;12.40;73.40;;;;;;9176902;19;20010;-66
2024/03/01 14:21:28;;;;;;;5.05;2.03;;;12.40;73.40;;;;;;9177866;19;20037;-66
2024/03/01 14:24:38;;;;;;;4.97;2.17;;;12.40;73.50;;;;;;9177501;19;20018;-66
2024/03/01 14:27:47;;;;;;;6.65;2.35;;;12.40;73.50;;;;;;9175806;19;20352;-67
2024/03/01 14:30:55;;;;;;;4.32;1.80;;;12.40;73.40;;;;;;9177432;19;20025;-66
2024/03/01 14:34:02;;;;;;;3.08;1.67;;;12.40;73.20;;;;;;9174262;19;20021;-66
2024/03/01 14:37:10;;;;;;;2.97;1.52;;;12.50;73.20;;;;;;9174782;19;20023;-69
2024/03/01 14:40:20;;;;;;;4.72;1.63;;;12.50;73.10;;;;;;9175759;19;20014;-66
2024/03/01 14:43:29;;;;;;;3.25;1.65;;;12.50;73.10;;;;;;9176429;19;20019;-66
2024/03/01 14:46:40;;;;;;;3.70;1.25;;;12.50;73.20;;;;;;9175351;19;20015;-65
2024/03/01 14:49:55;;;;;;;2.97;1.33;;;12.60;73.00;;;;;;9170610;19;20021;-67
2024/03/01 14:53:07;;;;;;;2.33;1.20;;;12.60;72.80;;;;;;9175684;19;20396;-65
2024/03/01 14:56:17;;;;;;;2.15;1.20;;;12.50;72.50;;;;;;9175749;19;20033;-66
2024/03/01 14:59:23;;;;;;;1.77;0.85;;;12.50;72.20;;;;;;9175522;19;20106;-65
2024/03/01 15:02:31;;;;;;;3.08;1.10;;;12.50;72.40;;;;;;9175199;19;20061;-67
2024/03/01 15:05:38;;;;;;;3.10;1.10;;;12.50;72.40;;;;;;9175087;19;20010;-67
2024/03/01 15:08:46;;;;;;;6.47;1.83;;;12.50;72.50;;;;;;9174371;19;20015;-67
2024/03/01 15:11:54;;;;;;;3.38;1.35;;;12.60;72.50;;;;;;9174305;19;20371;-66
2024/03/01 15:15:08;;;;;;;2.30;0.85;;;12.60;72.30;;;;;;9169162;19;20013;-67
2024/03/01 15:18:14;;;;;;;1.65;0.85;;;12.60;72.30;;;;;;9170523;19;20019;-69
2024/03/01 15:21:21;;;;;;;2.58;0.93;;;12.60;72.30;;;;;;9173781;19;20574;-66
2024/03/01 15:24:27;;;;;;;6.25;0.85;;;12.70;72.20;;;;;;9171294;19;20017;-67
2024/03/01 15:27:37;;;;;;;2.20;0.90;;;12.60;71.90;;;;;;9172226;19;20360;-65
2024/03/01 15:30:43;;;;;;;0.77;0.70;;;12.70;71.80;;;;;;9170404;19;20546;-68
2024/03/01 15:33:51;;;;;;;2.08;0.82;;;12.70;71.70;;;;;;9174338;19;20026;-65
2024/03/01 15:36:56;;;;;;;3.10;0.85;;;12.80;71.70;;;;;;9173465;19;20042;-67
2024/03/01 15:40:05;;;;;;;3.55;0.70;;;12.80;71.50;;;;;;9172066;19;20030;-66
2024/03/01 15:43:14;;;;;;;2.40;0.73;;;12.80;71.50;;;;;;9171168;19;20026;-66
2024/03/01 15:46:25;;;;;;;1.92;0.77;;;12.80;72.00;;;;;;9169542;19;20483;-69
2024/03/01 15:49:32;;;;;;;1.15;0.65;;;12.80;71.20;;;;;;9169617;19;20025;-66
2024/03/01 15:52:41;;;;;;;6.97;1.00;;;12.70;71.10;;;;;;9171768;19;20479;-67
2024/03/01 15:55:56;;;;;;;0.57;0.50;;;12.70;70.90;;;;;;9171359;19;20015;-66
2024/03/01 15:59:09;;;;;;;2.92;0.70;;;12.70;70.70;;;;;;9172980;19;20475;-66
2024/03/01 16:02:18;;;;;;;1.83;0.57;;;12.60;70.50;;;;;;9165146;19;20018;-65
2024/03/01 16:05:26;;;;;;;1.58;0.80;;;12.60;70.60;;;;;;9171616;19;20364;-66
2024/03/01 16:08:32;;;;;;;1.70;0.80;;;12.60;70.70;;;;;;9171696;19;20029;-66
2024/03/01 16:11:44;;;;;;;2.33;0.93;;;12.60;70.70;;;;;;9167089;19;20018;-66
2024/03/01 16:14:53;;;;;;;3.70;1.10;;;12.50;70.60;;;;;;9162974;19;20022;-68
2024/03/01 16:18:02;;;;;;;2.65;0.93;;;12.50;70.50;;;;;;9170600;19;20371;-68
2024/03/01 16:21:11;;;;;;;3.88;0.90;;;12.50;70.50;;;;;;9170652;19;20036;-69
2024/03/01 16:24:18;;;;;;;1.35;1.00;;;12.40;70.40;;;;;;9167270;19;20475;-68
2024/03/01 16:27:24;;;;;;;4.32;1.05;;;12.40;70.50;;;;;;9170259;19;20014;-68
2024/03/01 16:30:34;;;;;;;2.95;1.10;;;12.40;70.40;;;;;;9167032;19;20017;-67